01:09 Streetstepper Moetz - Haiming - Silz - Stams - Thannrain - Moetz
Ort Moetz Datum 11.05.2015 18:45:02
Kategorie Streetstepper
Distanz 25,28 Kilometer Steigung 96,0 Meter Gefälle -110,0 Meter
Gesamt Zeit 01:09:06 Aktiv 01:09:02 Pause 00:00:04
Durchs. Tempo 22,0 km/h Tempo max. 43,8 km/h Tempo min. 8,8 km/h
Kalorien 0 Durchs. HF 121 BPM HF max. 142 BPM
Wetter 24 °C Clear Min/Max: 23,8 °C/25,0 °C; Druck: 1022,7 mbar; Rel. Feuchte: 34,3%; Taupunkt: 7,4 °C; Niederschlag: 0,1mm
Ausrüstung
Notiz Moetz - Haiming - Silz - Stams - Thannrain - Moetz ... warm, trocken, leicht windig - locker bis flott ... garmin connect
Splits
Distanz (km) Gesamt Zeit Split Zeit Split Tempo Split Tempo Höhenprofil (m)
1,00 00:02:49 00:02:49 00:02:49 21,3 -0,39
2,00 00:05:39 00:02:50 00:02:50 21,2 3,47
3,00 00:08:20 00:02:41 00:02:41 22,3 6,01
4,00 00:10:50 00:02:29 00:02:30 24,0 -1,08
5,00 00:13:26 00:02:35 00:02:36 23,1 -1,56
6,00 00:16:01 00:02:35 00:02:36 23,2 3,42
7,00 00:18:33 00:02:31 00:02:31 23,8 0,53
8,00 00:21:09 00:02:36 00:02:37 22,9 3,19
9,00 00:23:44 00:02:34 00:02:34 23,3 -1,28
10,00 00:27:06 00:03:21 00:03:22 17,8 2,22
11,00 00:29:31 00:02:25 00:02:26 24,7 -1,66
12,00 00:31:58 00:02:27 00:02:27 24,5 1,76
13,00 00:34:14 00:02:15 00:02:16 26,5 -10,34
14,00 00:37:01 00:02:47 00:02:47 21,5 -4,48
15,00 00:39:38 00:02:36 00:02:36 23,0 -2,46
16,00 00:42:02 00:02:24 00:02:24 25,0 -4,86
17,00 00:45:09 00:03:07 00:03:07 19,2 8,09
18,00 00:49:04 00:03:55 00:03:55 15,3 21,61
19,00 00:50:54 00:01:50 00:01:50 32,7 -33,10
20,00 00:53:36 00:02:41 00:02:41 22,3 -1,93
21,00 00:56:20 00:02:44 00:02:45 21,9 -2,13
22,00 00:59:08 00:02:47 00:02:47 21,5 2,45
23,00 01:02:07 00:02:58 00:02:59 20,1 -0,17
24,00 01:04:48 00:02:41 00:02:42 22,3 2,79
25,00 01:07:51 00:03:02 00:03:03 19,7 6,53
25,33 01:09:02 00:01:10 00:03:37 16,6 3,27